Time;durP1;ratioP1;P1;durP2;ratioP2;P2;SDS_P1;SDS_P2;PMS_P1;PMS_P2;Temp;Humidity;BMP_temperature;BMP_pressure;BME280_temperature;BME280_humidity;BME280_pressure;Samples;Min_cycle;Max_cycle;Signal;HPM_P1;HPM_P2
2022/08/25 00:01:31;;;;;;;6.82;4.53;;;;;;;24.77;66.22;101653.34;5007589;28;20025;-62
2022/08/25 00:04:00;;;;;;;7.93;5.15;;;;;;;24.73;66.16;101652.53;5008767;28;20029;-51
2022/08/25 00:06:25;;;;;;;7.75;5.05;;;;;;;24.70;66.25;101660.50;5004474;28;20525;-60
2022/08/25 00:08:51;;;;;;;6.00;4.70;;;;;;;24.69;66.52;101647.34;5006294;28;20026;-61
2022/08/25 00:11:19;;;;;;;5.50;4.97;;;;;;;24.66;66.66;101650.03;5004320;28;20038;-61
2022/08/25 00:13:48;;;;;;;6.75;5.30;;;;;;;24.56;67.33;101647.56;5005282;28;20096;-61
2022/08/25 00:16:15;;;;;;;5.28;4.78;;;;;;;24.60;66.86;101646.63;5002154;28;20026;-60
2022/08/25 00:18:44;;;;;;;5.90;4.97;;;;;;;24.56;67.16;101650.19;5007120;28;20518;-61
2022/08/25 00:21:10;;;;;;;;;;;;;;;24.80;65.29;101645.41;5001440;28;20505;-62
2022/08/25 00:23:35;;;;;;;9.88;5.18;;;;;;;24.52;66.86;101648.53;5005559;28;19941;-61
2022/08/25 00:26:01;;;;;;;6.55;5.00;;;;;;;24.51;67.15;101646.81;5003614;28;20061;-60
2022/08/25 00:28:29;;;;;;;6.13;5.07;;;;;;;24.48;67.16;101641.59;5002347;28;20057;-56
2022/08/25 00:30:54;;;;;;;7.00;5.18;;;;;;;24.46;66.73;101650.41;4998510;28;20026;-61
2022/08/25 00:33:20;;;;;;;6.30;5.13;;;;;;;24.43;66.29;101650.44;5007541;28;20104;-60
2022/08/25 00:35:45;;;;;;;6.75;5.30;;;;;;;24.40;66.38;101643.50;5007070;28;20422;-57
2022/08/25 00:38:11;;;;;;;5.47;4.93;;;;;;;24.34;66.87;101643.59;5003328;28;20495;-60
2022/08/25 00:40:39;;;;;;;5.65;5.15;;;;;;;24.33;67.16;101650.56;5006888;28;20040;-52
2022/08/25 00:43:06;;;;;;;5.57;4.88;;;;;;;24.30;66.82;101653.25;5007198;28;20037;-58
2022/08/25 00:45:32;;;;;;;8.43;4.80;;;;;;;24.28;66.87;101647.16;5005953;28;20026;-56
2022/08/25 00:47:58;;;;;;;6.82;4.72;;;;;;;24.27;66.74;101650.69;5003927;28;20045;-60
2022/08/25 00:50:24;;;;;;;5.72;4.70;;;;;;;24.26;66.76;101646.28;5005086;28;20037;-59
2022/08/25 00:52:54;;;;;;;8.02;5.38;;;;;;;24.28;66.47;101641.91;5004536;28;20033;-58
2022/08/25 00:55:28;;;;;;;7.65;5.15;;;;;;;24.26;66.56;101646.28;5000667;28;20565;-59
2022/08/25 00:58:06;;;;;;;6.57;5.50;;;;;;;24.26;66.16;101650.69;5004249;28;20418;-61
2022/08/25 01:00:34;;;;;;;;;;;;;;;24.44;64.87;101650.41;5003956;28;20030;-57
2022/08/25 01:03:00;;;;;;;6.32;5.45;;;;;;;24.22;65.57;101646.38;5004994;28;19940;-60
2022/08/25 01:05:29;;;;;;;6.45;5.32;;;;;;;24.15;65.83;101650.88;5006860;28;20490;-58
2022/08/25 01:07:56;;;;;;;6.45;5.22;;;;;;;24.08;65.62;101638.69;5005899;28;20057;-61
2022/08/25 01:10:23;;;;;;;7.22;5.32;;;;;;;24.12;65.57;101644.78;5003874;28;20042;-58
2022/08/25 01:12:51;;;;;;;9.88;5.45;;;;;;;24.05;65.81;101628.25;5005298;28;20064;-55
2022/08/25 01:15:16;;;;;;;6.68;5.22;;;;;;;24.08;65.29;101639.56;5005949;28;20502;-52
2022/08/25 01:17:48;;;;;;;6.72;5.80;;;;;;;24.02;65.40;101642.28;5008604;28;20073;-61
2022/08/25 01:20:18;;;;;;;5.60;5.10;;;;;;;23.97;65.79;101641.50;5001935;28;20065;-53
2022/08/25 01:22:43;;;;;;;6.60;5.35;;;;;;;23.96;65.18;101637.13;5018353;28;20397;-58
2022/08/25 01:25:46;;;;;;;10.90;6.10;;;;;;;24.00;64.93;101632.72;5000350;28;20034;-56
2022/08/25 01:28:11;;;;;;;5.82;5.22;;;;;;;23.91;64.70;101646.84;5006222;28;20033;-53
2022/08/25 01:30:37;;;;;;;6.13;5.22;;;;;;;23.87;64.96;101639.91;5005255;28;20044;-60
2022/08/25 01:33:05;;;;;;;6.65;5.60;;;;;;;23.90;64.71;101644.22;5003360;28;20110;-56
2022/08/25 01:35:32;;;;;;;8.25;5.38;;;;;;;23.82;64.58;101644.34;5004267;28;20014;-61
2022/08/25 01:37:58;;;;;;;8.20;5.45;;;;;;;23.76;64.62;101647.94;5003370;28;20030;-60
2022/08/25 01:40:24;;;;;;;7.97;5.13;;;;;;;23.78;64.20;101646.16;5000586;28;20034;-61
2022/08/25 01:43:05;;;;;;;7.38;5.55;;;;;;;23.86;64.26;101646.06;5005681;28;20453;-60
2022/08/25 01:45:31;;;;;;;7.13;5.78;;;;;;;23.76;63.60;101644.44;5002556;28;20509;-57
2022/08/25 01:47:56;;;;;;;8.65;5.95;;;;;;;23.73;63.48;101645.38;5005610;28;20034;-60
2022/08/25 01:50:22;;;;;;;9.07;5.93;;;;;;;23.73;63.04;101641.88;5002330;28;20060;-61
2022/08/25 01:53:10;;;;;;;13.32;6.45;;;;;;;23.81;62.97;101643.50;5005937;28;20030;-58
2022/08/25 01:56:10;;;;;;;9.50;6.60;;;;;;;23.69;62.63;101642.78;5005259;28;20418;-61
2022/08/25 01:58:30;;;;;;;8.85;6.30;;;;;;;23.66;62.17;101640.19;5000055;28;20503;-60
2022/08/25 02:00:58;;;;;;;12.33;6.73;;;;;;;23.66;61.56;101643.72;5002819;28;20546;-61
2022/08/25 02:03:24;;;;;;;11.50;6.65;;;;;;;23.63;61.35;101637.63;5002386;28;20046;-61
2022/08/25 02:05:50;;;;;;;7.50;5.97;;;;;;;23.60;61.41;101635.88;5003267;28;20034;-61
2022/08/25 02:08:16;;;;;;;8.80;6.13;;;;;;;23.58;60.72;101642.91;5004222;28;20033;-61
2022/08/25 02:10:42;;;;;;;9.13;6.22;;;;;;;23.51;61.53;101639.50;5003900;28;20100;-57
2022/08/25 02:13:08;;;;;;;9.90;6.32;;;;;;;23.53;60.58;101636.84;5002189;28;20038;-56
2022/08/25 02:15:33;;;;;;;7.97;6.20;;;;;;;23.58;60.36;101636.78;5004834;28;20064;-60
2022/08/25 02:17:59;;;;;;;12.07;6.55;;;;;;;23.55;60.01;101637.72;5005880;28;20394;-59
2022/08/25 02:20:25;;;;;;;9.90;6.25;;;;;;;23.53;59.68;101632.44;5005787;28;20398;-59
2022/08/25 02:22:51;;;;;;;12.35;6.30;;;;;;;23.52;59.35;101633.34;5004393;28;20037;-54
2022/08/25 02:25:18;;;;;;;9.40;6.03;;;;;;;23.47;59.69;101639.53;5003922;28;20022;-56
2022/08/25 02:27:45;;;;;;;7.30;6.15;;;;;;;23.43;59.37;101633.47;5005102;28;20112;-53
2022/08/25 02:30:12;;;;;;;8.40;6.35;;;;;;;23.42;59.01;101630.84;5002259;28;20040;-60
2022/08/25 02:32:38;;;;;;;7.25;5.72;;;;;;;23.41;59.36;101637.00;5001842;28;20045;-55
2022/08/25 02:35:05;;;;;;;7.05;6.00;;;;;;;23.37;59.22;101633.56;5004588;28;20030;-59
2022/08/25 02:37:30;;;;;;;8.60;5.78;;;;;;;23.38;59.26;101629.19;5000801;28;20038;-60
2022/08/25 02:39:56;;;;;;;11.43;6.88;;;;;;;23.32;59.30;101624.88;5003656;28;20036;-61
2022/08/25 02:42:23;;;;;;;11.80;6.43;;;;;;;23.36;59.11;101625.69;5000638;28;20084;-56
2022/08/25 02:44:48;;;;;;;12.35;6.50;;;;;;;23.27;59.20;101621.44;5001385;28;20490;-60
2022/08/25 02:47:14;;;;;;;11.40;6.20;;;;;;;23.27;58.82;101627.56;5005609;28;20041;-61
2022/08/25 02:49:39;;;;;;;9.32;6.78;;;;;;;23.17;59.44;101630.28;5005387;28;20025;-61
2022/08/25 02:52:05;;;;;;;10.55;6.38;;;;;;;23.22;59.04;101625.88;5003911;28;20037;-58
2022/08/25 02:54:31;;;;;;;9.00;6.05;;;;;;;23.18;59.05;101621.56;5002929;28;20046;-61
2022/08/25 02:56:56;;;;;;;10.82;6.50;;;;;;;23.15;58.84;101625.06;5005831;28;20038;-61
2022/08/25 02:59:21;;;;;;;12.77;6.82;;;;;;;23.17;59.14;101617.19;5002538;28;20121;-61
2022/08/25 03:01:47;;;;;;;8.57;6.55;;;;;;;23.13;59.12;101612.88;5005478;28;20051;-58
2022/08/25 03:04:13;;;;;;;10.95;6.50;;;;;;;23.10;58.76;101619.00;5001962;28;20126;-59
2022/08/25 03:06:39;;;;;;;10.80;6.22;;;;;;;23.08;58.95;101620.78;5003780;28;20034;-60
2022/08/25 03:09:05;;;;;;;8.98;6.50;;;;;;;23.04;59.10;101616.47;5003750;28;20065;-58
2022/08/25 03:11:31;;;;;;;8.68;6.00;;;;;;;23.04;59.13;101615.59;4999870;28;20044;-60
2022/08/25 03:13:56;;;;;;;10.32;6.70;;;;;;;23.02;58.95;101611.25;5003507;28;20042;-61
2022/08/25 03:16:22;;;;;;;10.40;6.65;;;;;;;23.02;58.89;101610.38;5001001;28;20044;-61
2022/08/25 03:18:48;;;;;;;8.75;6.60;;;;;;;22.96;59.34;101605.19;5001243;28;20569;-59
2022/08/25 03:21:14;;;;;;;9.60;7.32;;;;;;;22.96;58.73;101603.44;5005248;28;20054;-59
2022/08/25 03:23:40;;;;;;;10.85;6.57;;;;;;;22.89;58.84;101604.41;5004234;28;20525;-54
2022/08/25 03:28:54;;;;;;;11.95;7.60;;;;;;;22.83;58.70;101599.19;5000267;28;20040;-60
2022/08/25 03:31:20;;;;;;;10.30;7.32;;;;;;;22.79;58.56;101596.59;5003444;28;20026;-58
2022/08/25 03:33:45;;;;;;;8.55;6.90;;;;;;;22.81;58.88;101598.31;5003359;28;20036;-60
2022/08/25 03:36:11;;;;;;;12.35;7.10;;;;;;;22.77;58.64;101594.00;5006169;28;20074;-61
2022/08/25 03:38:37;;;;;;;8.50;6.78;;;;;;;22.81;58.42;101597.44;5004267;28;20041;-61
2022/08/25 03:41:20;;;;;;;10.75;7.00;;;;;;;22.78;59.06;101592.25;5004826;28;20041;-61
2022/08/25 03:43:46;;;;;;;15.90;7.20;;;;;;;22.71;58.77;101594.94;5001410;28;20915;-61
2022/08/25 03:46:30;;;;;;;15.73;7.07;;;;;;;22.79;58.50;101591.38;5000712;28;20080;-52
2022/08/25 03:48:56;;;;;;;15.88;7.50;;;;;;;22.61;59.03;101588.06;5001703;28;20073;-60
2022/08/25 03:51:24;;;;;;;9.13;6.90;;;;;;;22.65;58.64;101588.91;5003781;28;20029;-58
2022/08/25 03:53:50;;;;;;;11.45;7.38;;;;;;;22.64;59.02;101585.41;5000608;28;20076;-61
2022/08/25 03:56:16;;;;;;;11.68;7.07;;;;;;;22.58;58.77;101582.84;5004792;28;20076;-60
2022/08/25 03:58:41;;;;;;;12.48;6.90;;;;;;;22.53;58.65;101583.78;5002434;28;20489;-60
2022/08/25 04:01:08;;;;;;;9.23;6.65;;;;;;;22.56;58.57;101586.34;5003805;28;20561;-61
2022/08/25 04:03:33;;;;;;;12.52;7.22;;;;;;;22.50;58.39;101576.78;5002596;28;20025;-49
2022/08/25 04:06:04;;;;;;;10.65;7.13;;;;;;;22.48;58.76;101581.19;5001159;28;20510;-57
2022/08/25 04:08:30;;;;;;;10.23;7.00;;;;;;;22.46;58.75;101572.50;5005786;28;20036;-60
2022/08/25 04:10:55;;;;;;;8.52;6.45;;;;;;;22.43;58.28;101572.50;5002262;28;20034;-61
2022/08/25 04:13:21;;;;;;;13.82;6.82;;;;;;;22.41;58.35;101567.28;5003373;28;20120;-51
2022/08/25 04:15:47;;;;;;;12.23;6.82;;;;;;;22.45;58.18;101568.16;5002917;28;20030;-61
2022/08/25 04:18:13;;;;;;;14.00;6.82;;;;;;;22.39;57.92;101566.44;5000803;28;20775;-58
2022/08/25 04:20:41;;;;;;;10.20;6.78;;;;;;;22.35;58.12;101566.47;5005328;28;20112;-52
2022/08/25 04:23:09;;;;;;;9.63;6.68;;;;;;;22.34;57.67;101578.72;5000357;28;20041;-59
2022/08/25 04:25:41;;;;;;;10.20;6.35;;;;;;;22.32;58.02;101575.22;5005798;28;20056;-61
2022/08/25 04:28:07;;;;;;;11.48;7.05;;;;;;;22.29;58.28;101569.16;5004345;28;20026;-61
2022/08/25 04:30:32;;;;;;;7.80;6.22;;;;;;;22.28;58.30;101573.53;5004774;28;20056;-61
2022/08/25 04:32:57;;;;;;;9.63;6.22;;;;;;;22.25;57.70;101573.53;5006705;28;20481;-59
2022/08/25 04:35:23;;;;;;;10.77;6.50;;;;;;;22.23;58.38;101567.47;5007365;28;20429;-61
2022/08/25 04:37:49;;;;;;;12.65;6.78;;;;;;;22.19;57.53;101570.97;5004894;28;20491;-57
2022/08/25 04:40:14;;;;;;;14.20;6.97;;;;;;;22.15;57.62;101557.06;5008194;28;20089;-58
2022/08/25 04:42:39;;;;;;;10.55;6.38;;;;;;;22.19;58.39;101557.88;5005450;28;20100;-55
2022/08/25 04:45:05;;;;;;;10.48;6.53;;;;;;;22.13;58.21;101563.19;5005092;28;20042;-50
2022/08/25 04:47:36;;;;;;;9.50;6.57;;;;;;;22.15;58.18;101554.44;5005700;28;20064;-60
2022/08/25 04:50:02;;;;;;;9.57;6.85;;;;;;;22.11;58.12;101557.09;5002452;28;20029;-56
2022/08/25 04:52:27;;;;;;;9.15;6.47;;;;;;;22.08;57.87;101562.31;5004629;28;20034;-61
2022/08/25 04:54:53;;;;;;;8.40;6.45;;;;;;;22.07;57.49;101560.56;5005341;28;20108;-61
2022/08/25 04:57:18;;;;;;;8.40;6.38;;;;;;;22.12;57.50;101551.84;5007549;28;20069;-61
2022/08/25 04:59:43;;;;;;;9.98;6.32;;;;;;;22.08;57.32;101551.84;5005498;28;20053;-48
2022/08/25 05:02:09;;;;;;;9.80;6.95;;;;;;;22.05;57.48;101555.34;5001527;28;22909;-58
2022/08/25 05:04:36;;;;;;;9.05;6.18;;;;;;;22.01;57.40;101556.25;5004052;28;20556;-59
2022/08/25 05:07:03;;;;;;;12.88;6.50;;;;;;;22.04;57.12;101553.63;5002343;28;20057;-57
2022/08/25 05:09:29;;;;;;;16.25;7.28;;;;;;;21.97;57.23;101561.56;5004065;28;20034;-61
2022/08/25 05:11:55;;;;;;;13.77;7.13;;;;;;;21.97;57.20;101564.16;5001469;28;20048;-53
2022/08/25 05:14:21;;;;;;;8.65;6.57;;;;;;;21.99;57.30;101570.25;5008634;28;20108;-58
2022/08/25 05:16:48;;;;;;;15.32;7.55;;;;;;;21.99;57.25;101567.63;5005416;28;20029;-53
2022/08/25 05:19:13;;;;;;;12.32;7.35;;;;;;;21.99;56.57;101570.25;5002523;28;20112;-61
2022/08/25 05:21:39;;;;;;;14.65;7.45;;;;;;;22.00;57.00;101579.84;5004418;28;20490;-60
2022/08/25 05:24:06;;;;;;;14.65;7.03;;;;;;;21.97;56.45;101586.00;5005711;28;20510;-60
2022/08/25 05:26:33;;;;;;;12.95;6.50;;;;;;;21.98;56.83;101584.22;5003260;28;20026;-60
2022/08/25 05:29:00;;;;;;;11.05;6.10;;;;;;;22.01;56.48;101584.19;5006303;28;20118;-57
2022/08/25 05:31:27;;;;;;;9.00;6.20;;;;;;;21.97;56.77;101587.75;5006552;28;20026;-60
2022/08/25 05:33:53;;;;;;;7.20;5.95;;;;;;;21.98;56.94;101590.34;4999213;28;20034;-55
2022/08/25 05:36:20;;;;;;;11.38;6.38;;;;;;;21.96;57.61;101586.84;5005133;28;20032;-61
2022/08/25 05:38:46;;;;;;;13.98;6.30;;;;;;;21.95;56.98;101593.81;5001285;28;20041;-59
2022/08/25 05:41:15;;;;;;;9.98;6.03;;;;;;;21.97;56.83;101595.59;4999003;28;20052;-61
2022/08/25 05:43:42;;;;;;;12.68;6.10;;;;;;;22.01;56.84;101594.66;5002094;28;20033;-61
2022/08/25 05:46:08;;;;;;;11.27;6.15;;;;;;;22.01;57.15;101595.53;5003670;28;20482;-58
2022/08/25 05:48:34;;;;;;;12.82;5.90;;;;;;;22.01;56.36;101597.28;5003964;28;20040;-60
2022/08/25 05:51:02;;;;;;;14.70;6.28;;;;;;;21.99;56.62;101597.31;5003678;28;20371;-55
2022/08/25 05:53:28;;;;;;;18.17;6.05;;;;;;;22.04;56.28;101594.66;5004408;28;20029;-60
2022/08/25 05:55:55;;;;;;;13.65;6.30;;;;;;;22.02;56.27;101604.25;4998349;28;20561;-59
2022/08/25 05:58:22;;;;;;;15.88;6.40;;;;;;;22.06;55.59;101603.38;5000599;28;20030;-59
2022/08/25 06:00:48;;;;;;;11.40;6.28;;;;;;;22.08;55.81;101605.06;5004000;28;20033;-57
2022/08/25 06:03:14;;;;;;;13.27;6.35;;;;;;;22.10;55.75;101600.75;5000386;28;20075;-58
2022/08/25 06:05:39;;;;;;;12.82;6.07;;;;;;;22.14;55.36;101601.56;5004909;28;20030;-61
2022/08/25 06:08:05;;;;;;;11.65;5.85;;;;;;;22.17;54.68;101610.28;5003264;28;20026;-52
2022/08/25 06:10:31;;;;;;;9.65;5.80;;;;;;;22.26;55.09;101605.84;5000499;28;20444;-61
2022/08/25 06:12:56;;;;;;;11.20;6.00;;;;;;;22.29;54.99;101609.31;4996527;28;20104;-56
2022/08/25 06:15:24;;;;;;;9.20;6.18;;;;;;;22.34;56.24;101604.91;4994713;28;20548;-52
2022/08/25 06:17:50;;;;;;;11.18;5.72;;;;;;;22.40;55.53;101615.34;4995652;28;20037;-55
2022/08/25 06:20:21;;;;;;;10.93;5.78;;;;;;;22.47;54.29;101606.53;4994596;28;20030;-52
2022/08/25 06:22:47;;;;;;;11.77;5.53;;;;;;;22.51;54.27;101596.91;4997763;28;20061;-60
2022/08/25 06:25:15;;;;;;;13.45;5.80;;;;;;;22.57;55.32;101599.47;4991958;28;20034;-57
2022/08/25 06:27:40;;;;;;;13.00;5.80;;;;;;;22.66;55.73;101598.50;5000345;28;20030;-61
2022/08/25 06:30:09;;;;;;;12.45;5.65;;;;;;;22.69;53.78;101601.97;5001382;28;20607;-60
2022/08/25 06:32:38;;;;;;;13.27;5.55;;;;;;;22.77;53.66;101598.38;5003136;28;20025;-56
2022/08/25 06:35:05;;;;;;;11.90;5.72;;;;;;;22.85;53.53;101607.03;4997722;28;20041;-61
2022/08/25 06:37:31;;;;;;;13.30;5.20;;;;;;;22.87;53.00;101606.19;4999324;28;20033;-52
2022/08/25 06:39:56;;;;;;;6.72;4.60;;;;;;;22.97;53.09;101607.78;4999604;28;20080;-59
2022/08/25 06:42:21;;;;;;;13.15;4.85;;;;;;;23.03;53.51;101606.84;5000331;28;20029;-54
2022/08/25 06:44:47;;;;;;;7.75;4.68;;;;;;;23.12;53.14;101605.91;4996279;28;20042;-60
2022/08/25 06:47:14;;;;;;;8.18;4.55;;;;;;;23.22;52.95;101604.88;4999144;28;23146;-60
2022/08/25 06:49:41;;;;;;;8.38;4.43;;;;;;;23.29;52.87;101596.91;4999293;28;20505;-61
2022/08/25 06:52:07;;;;;;;9.60;4.40;;;;;;;23.40;52.41;101598.53;5002919;28;20052;-62
2022/08/25 06:54:32;;;;;;;8.07;4.63;;;;;;;23.49;51.89;101604.53;5001738;28;20116;-61
2022/08/25 06:56:58;;;;;;;7.15;4.60;;;;;;;23.61;51.95;101603.50;5000393;28;20037;-53
2022/08/25 06:59:24;;;;;;;8.93;4.50;;;;;;;23.65;51.93;101599.94;5003328;28;20033;-58
2022/08/25 07:01:49;;;;;;;6.50;4.40;;;;;;;23.74;52.57;101596.34;4999991;28;20533;-60
2022/08/25 07:04:14;;;;;;;9.80;4.50;;;;;;;23.80;51.60;101602.38;5000171;28;20123;-59
2022/08/25 07:06:40;;;;;;;11.13;4.35;;;;;;;23.86;51.84;101598.78;5000033;28;20026;-61
2022/08/25 07:09:07;;;;;;;8.20;4.10;;;;;;;23.95;51.63;101601.25;5003760;28;20033;-61
2022/08/25 07:11:33;;;;;;;9.68;4.45;;;;;;;24.02;51.94;101592.38;5002206;28;20034;-62
2022/08/25 07:14:03;;;;;;;8.63;4.45;;;;;;;24.12;52.80;101598.34;5004534;28;20060;-48
2022/08/25 07:16:30;;;;;;;7.72;4.07;;;;;;;24.18;51.21;101589.50;5004045;28;20172;-63
2022/08/25 07:18:56;;;;;;;7.57;4.20;;;;;;;24.30;50.94;101587.53;5001277;28;20040;-61
2022/08/25 07:21:23;;;;;;;7.78;4.10;;;;;;;24.39;50.40;101591.81;5001603;28;20026;-56
2022/08/25 07:23:49;;;;;;;7.20;3.83;;;;;;;24.50;49.54;101587.19;5000933;28;20546;-58
2022/08/25 07:26:18;;;;;;;8.55;3.95;;;;;;;24.59;49.45;101583.56;5006461;28;20117;-59
2022/08/25 07:28:44;;;;;;;7.18;3.63;;;;;;;24.68;49.72;101587.75;5003896;28;20467;-60
2022/08/25 07:31:10;;;;;;;8.82;3.63;;;;;;;24.77;49.13;101595.50;5000892;28;20383;-56
2022/08/25 07:33:36;;;;;;;9.55;3.78;;;;;;;24.88;50.06;101602.28;4998473;28;20799;-62
2022/08/25 07:36:01;;;;;;;6.30;3.83;;;;;;;24.92;49.01;101595.19;5004036;28;20033;-49
2022/08/25 07:38:28;;;;;;;9.80;3.97;;;;;;;24.99;48.82;101586.25;5000570;28;20030;-60
2022/08/25 07:41:03;;;;;;;7.65;3.60;;;;;;;25.03;49.00;101585.31;4991376;28;20526;-58
2022/08/25 07:43:28;;;;;;;11.80;3.50;;;;;;;25.08;48.86;101580.84;4992391;28;20040;-53
2022/08/25 07:45:54;;;;;;;7.35;3.55;;;;;;;25.17;48.52;101577.16;4994490;28;20042;-59
2022/08/25 07:48:19;;;;;;;10.05;3.60;;;;;;;25.16;49.01;101579.81;4996905;28;20021;-59
2022/08/25 07:50:46;;;;;;;6.68;3.22;;;;;;;25.22;49.01;101579.69;4992501;28;20068;-53
2022/08/25 07:53:14;;;;;;;10.50;3.47;;;;;;;25.30;48.49;101583.00;4995612;28;20034;-60
2022/08/25 07:55:40;;;;;;;9.20;3.45;;;;;;;25.30;49.55;101577.75;4994226;28;20542;-61
2022/08/25 07:58:08;;;;;;;11.13;3.67;;;;;;;25.42;49.12;101574.84;4995991;28;20042;-50
2022/08/25 08:00:36;;;;;;;8.48;3.63;;;;;;;25.45;48.00;101574.78;4989909;28;20034;-56
2022/08/25 08:03:04;;;;;;;7.57;3.47;;;;;;;25.51;48.15;101574.66;4991094;28;21967;-54
2022/08/25 08:05:30;;;;;;;7.82;3.03;;;;;;;25.55;48.44;101573.69;4995489;28;20045;-59
2022/08/25 08:07:55;;;;;;;6.00;3.10;;;;;;;25.66;48.64;101574.31;4996146;28;20066;-53
2022/08/25 08:10:22;;;;;;;7.75;2.92;;;;;;;25.76;48.48;101569.72;4997829;28;20065;-61
2022/08/25 08:12:48;;;;;;;9.73;3.08;;;;;;;25.79;47.60;101576.69;4997626;28;20034;-58
2022/08/25 08:15:13;;;;;;;7.47;3.35;;;;;;;25.90;47.46;101569.38;4999657;28;20045;-60
2022/08/25 08:17:39;;;;;;;7.18;2.78;;;;;;;25.95;46.95;101567.50;5001080;28;20433;-64
2022/08/25 08:20:08;;;;;;;11.57;2.85;;;;;;;26.06;46.65;101562.81;5000807;28;20072;-56
2022/08/25 08:22:35;;;;;;;6.03;2.63;;;;;;;26.10;46.57;101561.00;5000190;28;20032;-62
2022/08/25 08:25:01;;;;;;;7.32;2.90;;;;;;;26.16;45.90;101564.34;4996928;28;20581;-54
2022/08/25 08:27:26;;;;;;;6.50;2.67;;;;;;;26.26;45.63;101566.72;4996734;28;20030;-59
2022/08/25 08:29:52;;;;;;;11.40;3.08;;;;;;;26.26;47.04;101567.59;4997467;28;22395;-60
2022/08/25 08:32:18;;;;;;;7.82;2.85;;;;;;;26.37;45.87;101570.81;4995866;28;20060;-63
2022/08/25 08:34:45;;;;;;;11.65;2.80;;;;;;;26.41;46.46;101564.59;4995145;28;20033;-56
2022/08/25 08:37:11;;;;;;;6.47;2.58;;;;;;;26.49;46.34;101563.50;4995627;28;21347;-53
2022/08/25 08:39:36;;;;;;;9.45;2.80;;;;;;;26.58;46.74;101558.00;5001530;28;20506;-59
2022/08/25 08:42:18;;;;;;;5.32;2.47;;;;;;;26.64;47.09;101553.44;5003985;28;20049;-61
2022/08/25 08:44:43;;;;;;;8.35;3.15;;;;;;;26.76;45.88;101557.50;5001859;28;20030;-59
2022/08/25 08:47:24;;;;;;;5.85;2.83;;;;;;;26.84;46.50;101558.13;5001596;28;20034;-61
2022/08/25 08:50:05;;;;;;;10.57;3.15;;;;;;;26.89;46.35;101561.50;5003593;28;20022;-61
2022/08/25 08:52:45;;;;;;;6.70;2.90;;;;;;;26.96;46.38;101560.41;5006166;28;20029;-59
2022/08/25 08:55:44;;;;;;;10.13;2.85;;;;;;;27.04;46.08;101557.53;4999771;28;20090;-60
2022/08/25 08:58:46;;;;;;;9.57;3.03;;;;;;;27.11;45.27;101553.84;5001889;28;21037;-59
2022/08/25 09:01:17;;;;;;;7.78;2.63;;;;;;;27.19;44.42;101553.63;5002717;28;20057;-54
2022/08/25 09:03:48;;;;;;;5.30;2.60;;;;;;;27.23;45.22;101548.19;5001546;28;20034;-58
2022/08/25 09:06:23;;;;;;;7.90;2.90;;;;;;;27.35;45.07;101554.88;5003009;28;20046;-58
2022/08/25 09:08:49;;;;;;;8.20;2.50;;;;;;;27.37;45.31;101552.22;5002993;28;20096;-66
2022/08/25 09:11:26;;;;;;;9.48;3.15;;;;;;;27.40;44.26;101549.47;5003779;28;20057;-61
2022/08/25 09:14:09;;;;;;;10.38;2.70;;;;;;;27.50;45.33;101561.47;5003772;28;20030;-58
2022/08/25 09:16:55;;;;;;;7.32;3.28;;;;;;;27.58;43.85;101564.72;5002503;28;20025;-57
2022/08/25 09:19:39;;;;;;;5.47;2.80;;;;;;;27.65;44.24;101560.09;4999389;28;20048;-59
2022/08/25 09:22:33;;;;;;;8.30;2.58;;;;;;;27.74;44.98;101559.88;5000363;28;20073;-55
2022/08/25 09:25:10;;;;;;;8.60;2.67;;;;;;;27.77;43.97;101552.69;5007398;28;20048;-53
2022/08/25 09:27:43;;;;;;;7.22;2.53;;;;;;;27.88;44.11;101556.75;4996963;28;20033;-57
2022/08/25 09:30:13;;;;;;;6.28;2.63;;;;;;;27.88;44.29;101554.13;4995892;28;20034;-57
2022/08/25 09:32:42;;;;;;;8.60;2.65;;;;;;;27.97;45.37;101552.03;5003299;28;20430;-56
2022/08/25 09:35:16;;;;;;;5.80;2.60;;;;;;;28.04;44.29;101550.06;4998193;28;20052;-51
2022/08/25 09:37:42;;;;;;;3.33;2.42;;;;;;;28.03;41.40;101556.22;4999665;28;20495;-59
2022/08/25 09:40:08;;;;;;;6.60;3.22;;;;;;;28.08;41.63;101550.78;4998219;28;20041;-54
2022/08/25 09:42:48;;;;;;;6.88;2.80;;;;;;;28.08;42.09;101551.66;5009575;28;20038;-56
2022/08/25 09:45:14;;;;;;;5.03;2.40;;;;;;;28.14;43.02;101550.59;4994617;28;20113;-57
2022/08/25 09:47:44;;;;;;;5.63;2.50;;;;;;;28.19;41.80;101543.38;4996913;28;20044;-57
2022/08/25 09:50:19;;;;;;;7.60;2.30;;;;;;;28.28;41.43;101535.13;4995686;28;20024;-52
2022/08/25 09:52:44;;;;;;;5.20;2.60;;;;;;;28.36;40.66;101537.53;4996240;28;20042;-54
2022/08/25 09:55:12;;;;;;;4.05;2.47;;;;;;;28.31;41.33;101535.91;4995708;28;20049;-54
2022/08/25 09:57:49;;;;;;;4.68;2.50;;;;;;;28.38;41.33;101533.03;4983023;28;20099;-53
2022/08/25 10:00:22;;;;;;;6.18;2.63;;;;;;;28.46;41.14;101537.16;4994453;28;20049;-60
2022/08/25 10:03:17;;;;;;;7.18;2.92;;;;;;;28.49;41.68;101528.22;4995091;28;20033;-56
2022/08/25 10:06:10;;;;;;;8.73;3.03;;;;;;;28.56;41.75;101525.31;5028729;28;20395;-52
2022/08/25 10:08:39;;;;;;;5.55;2.38;;;;;;;28.62;40.88;101520.72;4997499;28;20612;-52
2022/08/25 10:11:46;;;;;;;13.27;3.10;;;;;;;28.65;40.33;101510.88;5002629;28;20041;-55
2022/08/25 10:14:20;;;;;;;6.68;2.78;;;;;;;28.71;40.59;101508.00;5004111;28;20038;-54
2022/08/25 10:16:47;;;;;;;5.72;2.47;;;;;;;28.84;40.25;101513.69;5005416;28;20029;-50
2022/08/25 10:19:27;;;;;;;7.82;2.50;;;;;;;28.81;40.04;101503.22;5002718;28;20132;-52
2022/08/25 10:22:19;;;;;;;5.93;2.58;;;;;;;28.84;40.25;101498.69;4996989;28;20433;-52
2022/08/25 10:24:45;;;;;;;7.53;3.00;;;;;;;28.91;39.97;101501.09;4999271;28;20041;-58
2022/08/25 10:27:13;;;;;;;5.25;2.47;;;;;;;28.92;38.90;101498.41;5002762;28;20490;-54
2022/08/25 10:30:05;;;;;;;11.30;2.88;;;;;;;29.03;38.65;101493.56;4997443;28;20030;-56
2022/08/25 10:33:01;;;;;;;6.28;2.50;;;;;;;29.09;39.67;101493.34;4995431;28;20038;-56
2022/08/25 10:35:34;;;;;;;4.05;2.28;;;;;;;29.19;38.26;101487.69;4991885;28;20394;-52
2022/08/25 10:38:29;;;;;;;7.30;2.60;;;;;;;29.16;39.55;101483.34;4997009;28;20042;-52
2022/08/25 10:41:18;;;;;;;6.05;2.13;;;;;;;29.26;39.37;101474.13;4993756;28;20048;-55
2022/08/25 10:45:41;;;;;;;6.63;2.58;;;;;;;29.31;39.26;101477.47;4995322;28;20086;-52
2022/08/25 10:47:27;;;;;;;6.35;2.58;;;;;;;29.35;37.52;101475.53;4999584;28;20033;-53
2022/08/25 10:49:58;;;;;;;5.35;2.50;;;;;;;29.34;37.57;101474.66;4997829;28;20056;-55
2022/08/25 10:53:02;;;;;;;7.72;2.75;;;;;;;29.43;38.20;101468.16;5002411;28;20030;-56
2022/08/25 10:55:53;;;;;;;9.73;2.55;;;;;;;29.39;36.72;101464.75;4995663;28;20529;-50
2022/08/25 10:58:27;;;;;;;9.98;2.63;;;;;;;29.38;36.89;101459.53;4998746;28;20026;-55
2022/08/25 11:01:17;;;;;;;7.32;2.50;;;;;;;29.37;37.58;101450.72;5001949;28;20037;-55
2022/08/25 11:03:53;;;;;;;4.68;2.22;;;;;;;29.34;36.96;101452.63;4995033;28;20026;-57
2022/08/25 11:06:25;;;;;;;10.05;2.60;;;;;;;29.33;37.42;101451.75;4999518;28;20076;-54
2022/08/25 11:08:55;;;;;;;9.77;2.88;;;;;;;29.34;38.00;101448.19;5005065;28;20032;-56
2022/08/25 11:11:34;;;;;;;9.25;2.53;;;;;;;29.38;37.38;101440.97;5003123;28;20025;-55
2022/08/25 11:14:08;;;;;;;9.75;2.88;;;;;;;29.33;37.54;101453.56;5013099;28;20017;-53
2022/08/25 11:16:44;;;;;;;5.85;2.60;;;;;;;29.31;37.15;101448.31;4991640;28;20030;-53
2022/08/25 11:19:34;;;;;;;5.97;2.78;;;;;;;29.34;38.30;101444.69;4998131;28;20076;-56
2022/08/25 11:22:23;;;;;;;8.82;2.40;;;;;;;29.34;38.34;101442.88;4992520;28;20034;-51
2022/08/25 11:24:51;;;;;;;8.00;3.00;;;;;;;29.38;38.12;101435.69;4991591;28;20033;-47
2022/08/25 11:27:21;;;;;;;6.15;2.53;;;;;;;29.43;38.03;101433.72;4992105;28;20502;-53
2022/08/25 11:29:57;;;;;;;5.38;3.00;;;;;;;29.46;37.85;101424.75;4991251;28;20032;-56
2022/08/25 11:32:24;;;;;;;9.73;2.70;;;;;;;29.46;38.50;101422.97;4992060;28;20494;-54
2022/08/25 11:34:51;;;;;;;6.10;2.90;;;;;;;29.57;38.11;101420.78;4994234;28;20605;-55
2022/08/25 11:37:24;;;;;;;6.63;2.83;;;;;;;29.63;38.74;101422.31;4991512;28;20466;-51
2022/08/25 11:40:27;;;;;;;7.32;2.50;;;;;;;29.64;37.84;101421.38;4994978;28;20390;-53